Time;durP1;ratioP1;P1;durP2;ratioP2;P2;SDS_P1;SDS_P2;PMS_P1;PMS_P2;Temp;Humidity;BMP_temperature;BMP_pressure;BME280_temperature;BME280_humidity;BME280_pressure;Samples;Min_cycle;Max_cycle;Signal;HPM_P1;HPM_P2
2021/10/01 00:00:44;;;;;;;2.65;1.38;;;;;;;8.17;nan;101301.78;5069392;28;20020;-73
2021/10/01 00:03:09;;;;;;;2.42;1.30;;;;;;;8.15;nan;101290.53;5070585;28;20362;-73
2021/10/01 00:05:35;;;;;;;3.22;1.40;;;;;;;8.17;nan;101299.16;5069786;28;20033;-74
2021/10/01 00:08:00;;;;;;;1.80;1.13;;;;;;;8.14;nan;101292.34;5070570;28;20266;-73
2021/10/01 00:10:26;;;;;;;2.85;1.38;;;;;;;8.19;nan;101286.72;5052239;28;20054;-73
2021/10/01 00:12:51;;;;;;;2.95;1.20;;;;;;;8.27;nan;101287.81;5069624;28;20068;-73
2021/10/01 00:15:16;;;;;;;2.50;1.10;;;;;;;8.37;nan;101280.03;5072996;28;20484;-73
2021/10/01 00:17:42;;;;;;;3.60;1.23;;;;;;;8.44;nan;101280.44;5052458;28;20331;-73
2021/10/01 00:20:08;;;;;;;1.70;1.10;;;;;;;8.45;nan;101275.03;5070189;28;20037;-73
2021/10/01 00:22:34;;;;;;;3.17;1.50;;;;;;;8.48;nan;101273.94;5070169;28;20071;-74
2021/10/01 00:24:59;;;;;;;2.45;1.20;;;;;;;8.43;nan;101262.94;5069642;28;20121;-73
2021/10/01 00:27:25;;;;;;;2.42;1.15;;;;;;;8.39;nan;101267.59;5051840;28;20039;-73
2021/10/01 00:29:50;;;;;;;4.38;1.33;;;;;;;8.39;nan;101272.84;5051159;28;20052;-73
2021/10/01 00:32:15;;;;;;;2.90;1.25;;;;;;;8.41;nan;101257.75;5051302;28;20044;-73
2021/10/01 00:34:41;;;;;;;3.13;1.33;;;;;;;8.44;nan;101254.91;5066584;28;20048;-73
2021/10/01 00:37:06;;;;;;;3.17;1.50;;;;;;;8.40;nan;101263.19;5069904;28;20032;-74
2021/10/01 00:39:32;;;;;;;2.33;1.20;;;;;;;8.41;nan;101260.41;5069610;28;20028;-73
2021/10/01 00:41:57;;;;;;;2.60;1.30;;;;;;;8.36;nan;101264.34;5051832;28;20052;-73
2021/10/01 00:44:22;;;;;;;2.92;1.40;;;;;;;8.23;nan;101249.47;5069084;28;20064;-73
2021/10/01 00:46:48;;;;;;;2.65;1.60;;;;;;;8.10;nan;101251.38;5069953;28;20576;-73
2021/10/01 00:49:13;;;;;;;3.35;1.60;;;;;;;8.02;nan;101256.41;5069153;28;20036;-73
2021/10/01 00:51:39;;;;;;;2.88;1.40;;;;;;;7.95;nan;101256.03;5069654;28;20033;-74
2021/10/01 00:54:05;;;;;;;2.50;1.50;;;;;;;8.07;nan;101251.63;5068734;28;20032;-73
2021/10/01 00:56:31;;;;;;;4.10;1.40;;;;;;;8.12;nan;101243.34;5069633;28;20046;-74
2021/10/01 00:58:56;;;;;;;2.65;1.33;;;;;;;8.21;nan;101247.94;5069443;28;20043;-73
2021/10/01 01:01:22;;;;;;;3.55;1.50;;;;;;;8.29;nan;101243.75;5069788;28;20064;-73
2021/10/01 01:03:53;;;;;;;3.42;1.60;;;;;;;8.21;nan;101232.94;5069085;28;20041;-73
2021/10/01 01:06:36;;;;;;;1.85;1.20;;;;;;;8.11;nan;101226.72;5067343;28;20037;-73
2021/10/01 01:09:26;;;;;;;3.45;1.50;;;;;;;8.04;nan;101222.88;5068928;28;20029;-73
2021/10/01 01:12:23;;;;;;;3.40;1.55;;;;;;;7.86;nan;101231.25;5025274;28;20044;-73
2021/10/01 01:14:59;;;;;;;2.47;1.40;;;;;;;7.75;nan;101223.31;5021281;28;20064;-73
2021/10/01 01:17:33;;;;;;;2.85;1.50;;;;;;;7.69;nan;101221.13;5066892;28;20120;-73
2021/10/01 01:20:21;;;;;;;3.08;1.45;;;;;;;7.62;nan;101225.19;5052202;28;20399;-73
2021/10/01 01:23:14;;;;;;;2.20;1.30;;;;;;;7.57;nan;101224.69;5070200;28;20041;-73
2021/10/01 01:25:53;;;;;;;3.58;1.70;;;;;;;7.49;nan;101217.38;5069543;28;20044;-73
2021/10/01 01:28:34;;;;;;;3.65;1.50;;;;;;;7.42;nan;101219.63;5069343;28;20036;-73
2021/10/01 01:31:22;;;;;;;4.70;1.48;;;;;;;7.39;nan;101211.13;5050973;28;20329;-73
2021/10/01 01:33:48;;;;;;;3.10;1.80;;;;;;;7.35;nan;101210.50;5054571;28;20028;-73
2021/10/01 01:36:14;;;;;;;2.55;1.50;;;;;;;7.34;nan;101200.97;5050636;28;20425;-73
2021/10/01 01:38:45;;;;;;;2.78;1.52;;;;;;;7.34;nan;101207.97;5052078;28;20101;-73
2021/10/01 01:41:11;;;;;;;2.53;1.60;;;;;;;7.30;nan;101206.56;5073697;28;20474;-73
2021/10/01 01:43:39;;;;;;;3.78;1.85;;;;;;;7.26;nan;101203.31;5072227;28;20032;-73
2021/10/01 01:46:06;;;;;;;2.97;1.65;;;;;;;7.26;nan;101198.03;5052723;28;20047;-73
2021/10/01 01:48:32;;;;;;;2.70;1.52;;;;;;;7.26;nan;101190.16;5073362;28;20043;-73
2021/10/01 01:50:59;;;;;;;2.45;1.40;;;;;;;7.23;nan;101190.38;5072705;28;20471;-74
2021/10/01 01:53:25;;;;;;;3.40;1.88;;;;;;;7.27;nan;101190.97;5072388;28;20058;-73
2021/10/01 01:55:51;;;;;;;2.55;1.60;;;;;;;7.22;nan;101186.06;5072578;28;20086;-74
2021/10/01 01:58:17;;;;;;;3.28;2.10;;;;;;;7.19;nan;101183.66;5072617;28;20277;-74
2021/10/01 02:00:44;;;;;;;3.65;2.17;;;;;;;7.15;nan;101188.31;5072382;28;20675;-73
2021/10/01 02:03:10;;;;;;;4.35;2.08;;;;;;;7.13;nan;101192.84;5072702;28;20056;-73
2021/10/01 02:05:36;;;;;;;3.72;2.05;;;;;;;7.11;nan;101189.50;5071755;28;20570;-73
2021/10/01 02:08:02;;;;;;;3.30;1.98;;;;;;;7.14;nan;101191.06;5054090;28;20029;-73
2021/10/01 02:10:29;;;;;;;4.82;1.95;;;;;;;7.20;nan;101190.63;5073188;28;20395;-74
2021/10/01 02:12:57;;;;;;;4.13;2.00;;;;;;;7.32;nan;101181.81;5072542;28;20043;-73
2021/10/01 02:15:25;;;;;;;3.55;1.83;;;;;;;7.35;nan;101183.38;5054392;28;20060;-73
2021/10/01 02:17:56;;;;;;;5.68;1.90;;;;;;;7.50;nan;101186.63;5072522;28;20032;-73
2021/10/01 02:20:22;;;;;;;2.78;1.50;;;;;;;7.56;nan;101189.66;5053612;28;20051;-73
2021/10/01 02:22:49;;;;;;;2.60;1.55;;;;;;;7.58;nan;101184.25;5072824;28;20416;-73
2021/10/01 02:28:02;;;;;;;2.80;1.58;;;;;;;7.42;nan;101185.41;5072476;28;20039;-73
2021/10/01 02:30:31;;;;;;;4.00;1.90;;;;;;;7.32;nan;101171.28;5068573;28;20048;-74
2021/10/01 02:33:00;;;;;;;2.53;1.20;;;;;;;7.36;nan;101171.88;5075633;28;20474;-73
2021/10/01 02:35:25;;;;;;;4.05;1.80;;;;;;;7.30;nan;101167.94;5074143;28;20043;-73
2021/10/01 02:37:51;;;;;;;4.15;1.70;;;;;;;7.34;nan;101169.38;5071884;28;20425;-72
2021/10/01 02:40:17;;;;;;;2.13;1.40;;;;;;;7.37;nan;101163.88;5053926;28;20041;-73
2021/10/01 02:42:42;;;;;;;2.72;1.50;;;;;;;7.40;nan;101168.91;5072491;28;20043;-73
2021/10/01 02:45:08;;;;;;;3.50;1.70;;;;;;;7.27;nan;101168.16;5071126;28;20037;-74
2021/10/01 02:47:35;;;;;;;3.92;1.50;;;;;;;7.11;nan;101160.56;5053632;28;20382;-73
2021/10/01 02:50:06;;;;;;;3.15;1.35;;;;;;;7.05;nan;101163.63;5053675;28;20029;-73
2021/10/01 02:52:56;;;;;;;2.80;1.63;;;;;;;7.09;nan;101159.00;5072456;28;20024;-73
2021/10/01 02:55:33;;;;;;;2.97;1.45;;;;;;;7.09;nan;101154.56;5070858;28;20043;-73
2021/10/01 02:58:10;;;;;;;2.55;1.42;;;;;;;7.15;nan;101155.91;5070147;28;20072;-74
2021/10/01 03:00:37;;;;;;;3.03;1.48;;;;;;;7.23;nan;101158.81;5053709;28;20072;-73
2021/10/01 03:03:23;;;;;;;2.83;1.52;;;;;;;7.23;nan;101154.38;5071620;28;20036;-73
2021/10/01 03:05:51;;;;;;;2.50;1.40;;;;;;;7.24;nan;101152.59;5067583;28;20577;-73
2021/10/01 03:08:18;;;;;;;2.45;1.50;;;;;;;7.24;nan;101152.59;5052972;28;20447;-73
2021/10/01 03:10:46;;;;;;;2.75;1.50;;;;;;;7.11;nan;101143.97;5071805;28;20397;-73
2021/10/01 03:13:14;;;;;;;2.65;1.60;;;;;;;7.00;nan;101145.56;5054099;28;20028;-73
2021/10/01 03:15:41;;;;;;;2.33;1.40;;;;;;;6.91;nan;101138.38;5072615;28;20569;-73
2021/10/01 03:18:07;;;;;;;3.35;1.52;;;;;;;6.87;nan;101146.63;5071344;28;20037;-73
2021/10/01 03:20:33;;;;;;;2.83;1.35;;;;;;;6.81;nan;101140.00;5054443;28;20032;-73
2021/10/01 03:22:58;;;;;;;2.85;1.65;;;;;;;6.75;nan;101133.41;5072683;28;20043;-73
2021/10/01 03:25:24;;;;;;;2.78;1.42;;;;;;;6.73;nan;101131.84;5073162;28;20093;-73
2021/10/01 03:27:50;;;;;;;3.03;1.58;;;;;;;6.81;nan;101122.41;5073998;28;20029;-73
2021/10/01 03:30:15;;;;;;;3.35;1.38;;;;;;;6.96;nan;101122.25;5072605;28;20091;-73
2021/10/01 03:32:41;;;;;;;2.70;1.40;;;;;;;6.97;nan;101123.94;5073056;28;20035;-73
2021/10/01 03:35:08;;;;;;;3.03;1.73;;;;;;;6.98;nan;101113.31;5072940;28;20036;-74
2021/10/01 03:37:34;;;;;;;2.55;1.60;;;;;;;7.00;nan;101121.91;5071393;28;20054;-73
2021/10/01 03:40:05;;;;;;;4.05;1.70;;;;;;;6.91;nan;101113.88;5071955;28;20025;-73
2021/10/01 03:42:31;;;;;;;3.30;1.60;;;;;;;6.78;nan;101117.41;5053780;28;20094;-73
2021/10/01 03:44:57;;;;;;;3.28;1.70;;;;;;;6.70;nan;101113.69;5052972;28;20033;-73
2021/10/01 03:47:22;;;;;;;3.22;1.77;;;;;;;6.65;nan;101110.53;5071251;28;20369;-73
2021/10/01 03:49:48;;;;;;;3.92;1.90;;;;;;;6.62;nan;101110.75;5071844;28;20040;-73
2021/10/01 03:52:14;;;;;;;4.15;1.67;;;;;;;6.67;nan;101101.56;5069221;28;20055;-73
2021/10/01 03:54:42;;;;;;;3.13;1.70;;;;;;;6.81;nan;101098.75;5046192;28;20033;-73
2021/10/01 03:57:08;;;;;;;2.30;1.40;;;;;;;6.85;nan;101101.19;5070720;28;20035;-73
2021/10/01 03:59:33;;;;;;;3.00;1.40;;;;;;;6.86;nan;101100.22;5070059;28;20029;-74
2021/10/01 04:01:59;;;;;;;3.15;1.80;;;;;;;6.91;nan;101098.94;5069771;28;20107;-73
2021/10/01 04:04:24;;;;;;;3.40;1.80;;;;;;;6.88;nan;101101.78;5051703;28;20028;-73
2021/10/01 04:06:50;;;;;;;2.80;1.63;;;;;;;6.77;nan;101093.88;5069725;28;20029;-73
2021/10/01 04:09:15;;;;;;;2.75;1.70;;;;;;;6.65;nan;101087.72;5070705;28;20045;-73
2021/10/01 04:11:40;;;;;;;4.65;1.70;;;;;;;6.56;nan;101088.41;5052089;28;20060;-73
2021/10/01 04:14:06;;;;;;;3.22;1.67;;;;;;;6.49;nan;101093.25;5070813;28;20245;-73
2021/10/01 04:16:32;;;;;;;3.30;1.77;;;;;;;6.43;nan;101092.84;5052706;28;20371;-73
2021/10/01 04:18:57;;;;;;;4.68;1.95;;;;;;;6.38;nan;101090.56;5071351;28;20025;-73
2021/10/01 04:21:22;;;;;;;4.57;2.30;;;;;;;6.35;nan;101089.00;5070660;28;20128;-73
2021/10/01 04:23:48;;;;;;;4.28;2.10;;;;;;;6.31;nan;101089.31;5052538;28;20119;-73
2021/10/01 04:26:13;;;;;;;3.75;2.15;;;;;;;6.31;nan;101089.31;5069403;28;20543;-73
2021/10/01 04:28:38;;;;;;;3.33;1.90;;;;;;;6.27;nan;101086.09;5070416;28;20052;-73
2021/10/01 04:31:04;;;;;;;3.88;1.83;;;;;;;6.25;nan;101090.63;5069596;28;20090;-74
2021/10/01 04:33:33;;;;;;;3.65;1.80;;;;;;;6.29;nan;101092.09;5075850;28;20049;-73
2021/10/01 04:35:59;;;;;;;2.58;1.50;;;;;;;6.42;nan;101091.19;5069301;28;20040;-73
2021/10/01 04:38:25;;;;;;;2.95;1.73;;;;;;;6.55;nan;101090.19;5068473;28;20067;-74
2021/10/01 04:40:50;;;;;;;2.58;1.58;;;;;;;6.66;nan;101088.56;5069672;28;20042;-74
2021/10/01 04:43:17;;;;;;;4.55;2.13;;;;;;;6.61;nan;101085.44;5069350;28;20037;-74
2021/10/01 04:45:42;;;;;;;3.80;2.00;;;;;;;6.51;nan;101094.00;5069889;28;20038;-74
2021/10/01 04:48:07;;;;;;;4.38;2.13;;;;;;;6.41;nan;101090.34;5051158;28;20033;-74
2021/10/01 04:50:34;;;;;;;4.78;2.15;;;;;;;6.32;nan;101089.22;5069427;28;20068;-74
2021/10/01 04:53:00;;;;;;;4.25;2.40;;;;;;;6.29;nan;101083.34;5052292;28;20033;-74
2021/10/01 04:55:26;;;;;;;4.78;1.90;;;;;;;6.28;nan;101081.69;5069630;28;20041;-74
2021/10/01 04:57:53;;;;;;;4.75;1.90;;;;;;;6.25;nan;101085.38;5068837;28;20067;-74
2021/10/01 05:00:19;;;;;;;3.90;2.30;;;;;;;6.23;nan;101081.16;5060804;28;20416;-74
2021/10/01 05:02:44;;;;;;;4.28;2.42;;;;;;;6.21;nan;101077.81;5051125;28;20036;-74
2021/10/01 05:05:09;;;;;;;3.22;1.80;;;;;;;6.21;nan;101078.66;5051297;28;20067;-74
2021/10/01 05:07:38;;;;;;;3.90;2.20;;;;;;;6.34;nan;101076.81;5069621;28;20075;-74
2021/10/01 05:10:04;;;;;;;2.95;1.60;;;;;;;6.34;nan;101076.81;5050800;28;20063;-74
2021/10/01 05:12:30;;;;;;;3.10;1.75;;;;;;;6.29;nan;101080.72;5069418;28;20173;-74
2021/10/01 05:14:55;;;;;;;2.88;1.55;;;;;;;6.26;nan;101073.91;5068861;28;20066;-74
2021/10/01 05:17:22;;;;;;;2.60;1.70;;;;;;;6.33;nan;101076.94;5069072;28;20036;-74
2021/10/01 05:19:49;;;;;;;3.00;1.60;;;;;;;6.27;nan;101072.09;5051026;28;20521;-74
2021/10/01 05:22:14;;;;;;;3.55;2.17;;;;;;;6.24;nan;101078.41;5069891;28;20450;-73
2021/10/01 05:24:40;;;;;;;2.92;1.92;;;;;;;6.25;nan;101079.28;5051322;28;20115;-74
2021/10/01 05:27:05;;;;;;;4.78;1.92;;;;;;;6.25;nan;101084.53;5068894;28;20032;-74
2021/10/01 05:29:30;;;;;;;4.72;1.80;;;;;;;6.30;nan;101087.66;5051131;28;20033;-74
2021/10/01 05:31:56;;;;;;;3.42;1.83;;;;;;;6.37;nan;101078.38;5050944;28;20190;-75
2021/10/01 05:34:22;;;;;;;4.13;1.67;;;;;;;6.38;nan;101074.81;5068925;28;20064;-73
2021/10/01 05:36:47;;;;;;;3.05;1.83;;;;;;;6.46;nan;101079.50;5069320;28;20373;-74
2021/10/01 05:39:12;;;;;;;4.47;2.00;;;;;;;6.40;nan;101079.97;5069000;28;20489;-74
2021/10/01 05:41:38;;;;;;;3.63;2.20;;;;;;;6.35;nan;101088.16;5069183;28;20029;-73
2021/10/01 05:44:03;;;;;;;6.22;1.92;;;;;;;6.37;nan;101088.91;5068202;28;20392;-74
2021/10/01 05:46:29;;;;;;;2.55;1.67;;;;;;;6.37;nan;101088.91;5068709;28;20033;-74
2021/10/01 05:48:58;;;;;;;2.60;1.80;;;;;;;6.38;nan;101093.19;5050652;28;20048;-74
2021/10/01 05:51:24;;;;;;;3.70;2.38;;;;;;;6.38;nan;101096.66;5068750;28;20039;-74
2021/10/01 05:54:11;;;;;;;3.85;2.17;;;;;;;6.38;nan;101093.19;5068846;28;20036;-74
2021/10/01 05:56:35;;;;;;;4.25;2.25;;;;;;;6.41;nan;101092.13;5067822;28;20078;-74
2021/10/01 05:59:00;;;;;;;5.05;2.10;;;;;;;6.47;nan;101092.53;5051100;28;20503;-73
2021/10/01 06:01:26;;;;;;;3.90;2.20;;;;;;;6.58;nan;101092.59;5068237;28;20233;-74
2021/10/01 06:03:51;;;;;;;4.30;2.28;;;;;;;6.63;nan;101086.16;5067887;28;20525;-74
2021/10/01 06:06:20;;;;;;;3.78;2.20;;;;;;;6.70;nan;101090.84;5067937;28;20036;-74
2021/10/01 06:08:45;;;;;;;4.60;2.25;;;;;;;6.76;nan;101084.28;5050774;28;20068;-74
2021/10/01 06:11:10;;;;;;;3.08;1.80;;;;;;;6.83;nan;101085.53;5068523;28;20060;-74
2021/10/01 06:13:37;;;;;;;3.80;1.98;;;;;;;6.98;nan;101079.13;5068393;28;20125;-74
2021/10/01 06:16:03;;;;;;;5.68;2.00;;;;;;;7.23;nan;101080.75;5060069;28;20252;-74
2021/10/01 06:18:28;;;;;;;5.25;2.10;;;;;;;7.47;nan;101079.81;5068165;28;20136;-74
2021/10/01 06:20:54;;;;;;;4.00;1.80;;;;;;;7.70;nan;101083.31;5069120;28;20055;-74
2021/10/01 06:23:22;;;;;;;3.60;1.90;;;;;;;7.92;nan;101077.19;5068809;28;20102;-74
2021/10/01 06:25:47;;;;;;;4.72;1.95;;;;;;;8.19;nan;101075.97;5071162;28;20028;-74
2021/10/01 06:28:13;;;;;;;3.88;2.10;;;;;;;8.55;nan;101071.34;5053401;28;20401;-74
2021/10/01 06:30:39;;;;;;;4.35;2.00;;;;;;;8.73;nan;101083.03;5071693;28;20041;-74
2021/10/01 06:33:05;;;;;;;4.40;1.80;;;;;;;8.90;nan;101077.19;5076734;28;20036;-73
2021/10/01 06:35:30;;;;;;;3.28;1.70;;;;;;;9.01;nan;101080.72;5073298;28;20048;-74
2021/10/01 06:37:56;;;;;;;3.42;1.60;;;;;;;9.14;nan;101082.22;5071044;28;20401;-73
2021/10/01 06:40:21;;;;;;;3.97;1.85;;;;;;;9.30;nan;101083.56;5053218;28;20066;-73
2021/10/01 06:42:49;;;;;;;4.60;1.70;;;;;;;9.52;nan;101085.22;5072595;28;20063;-74
2021/10/01 06:45:20;;;;;;;3.92;1.80;;;;;;;9.89;nan;101093.47;5071504;28;20048;-74
2021/10/01 08:20:15;;;;;;;2.55;0.98;;;;;;;19.03;nan;101067.44;5070703;28;20112;-76
2021/10/01 08:22:40;;;;;;;3.70;1.10;;;;;;;19.10;nan;101062.94;5052294;28;20029;-75
2021/10/01 08:25:06;;;;;;;4.50;1.48;;;;;;;19.59;nan;101063.88;5070584;28;20035;-76
2021/10/01 08:27:31;;;;;;;3.00;1.20;;;;;;;19.91;nan;101063.25;5052599;28;20131;-75
2021/10/01 08:29:56;;;;;;;4.40;1.52;;;;;;;20.78;nan;101063.47;5071190;28;20060;-74
2021/10/01 08:32:22;;;;;;;5.00;1.63;;;;;;;20.96;nan;101060.19;5052319;28;20032;-75
2021/10/01 08:34:49;;;;;;;2.35;1.10;;;;;;;21.30;nan;101059.09;5062644;28;20028;-75
2021/10/01 08:37:15;;;;;;;3.58;1.20;;;;;;;20.40;nan;101060.50;5070024;28;20060;-75
2021/10/01 08:39:40;;;;;;;;;;;;;;;20.70;nan;101050.25;5070812;28;20295;-75
2021/10/01 08:42:06;;;;;;;4.13;1.20;;;;;;;21.25;nan;101058.91;5051106;28;19924;-75
2021/10/01 08:44:33;;;;;;;2.33;1.17;;;;;;;22.08;nan;101055.56;5069174;28;20048;-75
2021/10/01 08:47:00;;;;;;;5.78;1.30;;;;;;;;;;5050661;28;20467;-74
2021/10/01 08:49:27;;;;;;;2.75;1.35;;;;;;;22.94;nan;101051.47;5061452;28;20101;-75
2021/10/01 08:51:53;;;;;;;2.22;0.90;;;;;;;23.07;nan;101050.56;5069279;28;20033;-75
2021/10/01 08:54:18;;;;;;;;;;;;;;;23.01;nan;101046.88;5069927;28;20051;-75
2021/10/01 08:56:44;;;;;;;3.60;1.10;;;;;;;23.84;nan;101042.91;5069699;28;20502;-75
2021/10/01 08:59:10;;;;;;;1.95;0.90;;;;;;;24.46;nan;101048.13;5070027;28;20393;-75
2021/10/01 09:01:35;;;;;;;;;;;;;;;25.23;nan;101041.84;5070502;28;20112;-75
2021/10/01 09:04:00;;;;;;;2.43;0.90;;;;;;;25.38;nan;101044.88;5069057;28;20395;-75
2021/10/01 09:06:26;;;;;;;2.10;1.00;;;;;;;24.88;nan;101033.69;5067440;28;20978;-75
2021/10/01 09:09:04;;;;;;;2.38;0.88;;;;;;;25.07;nan;101032.53;5050931;28;20115;-75
2021/10/01 09:11:35;;;;;;;1.88;0.90;;;;;;;25.16;nan;101036.53;5067628;28;20033;-75
2021/10/01 09:14:02;;;;;;;;;;;;;;;25.66;nan;100921.44;5069100;28;20032;-75
2021/10/01 09:16:29;;;;;;;2.33;1.00;;;;;;;25.93;nan;100905.41;5068131;28;20269;-75
2021/10/01 09:18:54;;;;;;;2.17;0.90;;;;;;;25.70;nan;100917.19;5069525;28;20039;-76
2021/10/01 09:21:22;;;;;;;2.58;0.85;;;;;;;26.49;nan;100913.66;5067277;28;20041;-75
2021/10/01 09:23:58;;;;;;;2.45;1.17;;;;;;;25.14;nan;100907.94;5051203;28;20074;-75
2021/10/01 09:26:25;;;;;;;2.83;1.02;;;;;;;24.99;nan;100900.31;5066125;28;20500;-75
2021/10/01 09:28:55;;;;;;;3.35;1.15;;;;;;;24.49;nan;100906.25;5068089;28;20127;-75
2021/10/01 09:31:36;;;;;;;2.20;0.90;;;;;;;23.35;nan;100884.66;5050415;28;20032;-75
2021/10/01 09:34:01;;;;;;;2.88;0.90;;;;;;;;;;5056175;28;20040;-75
2021/10/01 09:36:28;;;;;;;2.58;0.80;;;;;;;23.39;nan;100988.41;5067313;28;20036;-75
2021/10/01 09:38:54;;;;;;;1.73;0.90;;;;;;;23.39;nan;100975.72;5069058;28;20107;-75
2021/10/01 09:41:25;;;;;;;2.03;0.90;;;;;;;22.99;nan;100973.44;5068704;28;20377;-75
2021/10/01 09:44:11;;;;;;;2.17;1.10;;;;;;;22.12;nan;100973.31;5031574;28;20111;-75
2021/10/01 09:46:46;;;;;;;2.42;1.00;;;;;;;22.10;nan;100967.31;5058459;28;20153;-75
2021/10/01 09:49:14;;;;;;;2.63;1.00;;;;;;;22.52;nan;100964.94;5067249;28;20062;-75
2021/10/01 09:51:49;;;;;;;3.20;1.23;;;;;;;22.01;nan;100965.91;5069025;28;20032;-75
2021/10/01 09:54:16;;;;;;;3.55;1.30;;;;;;;21.53;nan;100960.97;5067890;28;20055;-75
2021/10/01 09:56:42;;;;;;;1.80;0.95;;;;;;;20.95;nan;100962.56;5067836;28;20035;-75
2021/10/01 09:59:15;;;;;;;2.85;1.10;;;;;;;20.50;nan;100948.94;5069183;28;20028;-75
2021/10/01 10:02:02;;;;;;;2.03;0.90;;;;;;;20.37;nan;100947.06;5055281;28;20047;-74
2021/10/01 10:04:36;;;;;;;2.15;1.00;;;;;;;19.65;nan;100945.88;5052934;28;20399;-74
2021/10/01 10:07:08;;;;;;;2.08;0.90;;;;;;;19.99;nan;100938.75;5071038;28;20430;-74
2021/10/01 10:09:37;;;;;;;2.15;1.20;;;;;;;18.74;nan;100935.28;5054852;28;20052;-74
2021/10/01 10:12:02;;;;;;;3.22;1.10;;;;;;;19.23;nan;100928.16;5072268;28;20037;-74
2021/10/01 10:14:32;;;;;;;3.20;1.00;;;;;;;19.01;nan;100922.88;5070467;28;20567;-75
2021/10/01 10:16:59;;;;;;;2.30;1.10;;;;;;;19.07;nan;100923.97;5053409;28;20075;-74
2021/10/01 10:19:30;;;;;;;3.78;1.40;;;;;;;18.89;nan;100922.63;5054133;28;20115;-75
2021/10/01 10:21:55;;;;;;;4.60;1.10;;;;;;;18.49;nan;100924.16;5053503;28;20052;-74
2021/10/01 10:24:21;;;;;;;4.72;1.30;;;;;;;18.33;nan;100917.25;5070610;28;20186;-74
2021/10/01 10:26:46;;;;;;;2.90;1.33;;;;;;;18.66;nan;100914.81;5072250;28;20038;-74
2021/10/01 10:29:13;;;;;;;3.80;1.35;;;;;;;18.62;nan;100918.09;5049506;28;20229;-74
2021/10/01 10:31:44;;;;;;;3.50;1.20;;;;;;;18.35;nan;100909.84;5071924;28;20520;-74
2021/10/01 10:34:21;;;;;;;4.68;1.40;;;;;;;18.68;nan;100910.06;5072678;28;20036;-74
2021/10/01 10:36:48;;;;;;;2.10;1.10;;;;;;;18.43;nan;100904.34;5069697;28;20067;-74
2021/10/01 10:39:15;;;;;;;2.58;1.20;;;;;;;18.20;nan;100906.41;5071906;28;20118;-75
2021/10/01 10:41:43;;;;;;;3.38;1.33;;;;;;;17.90;nan;100886.97;5071785;28;20535;-74
2021/10/01 10:44:09;;;;;;;4.05;1.25;;;;;;;17.95;nan;100893.44;5071173;28;20566;-74
2021/10/01 10:46:34;;;;;;;3.17;1.38;;;;;;;18.10;nan;100888.00;5071589;28;20094;-74
2021/10/01 10:49:16;;;;;;;2.50;1.10;;;;;;;18.10;nan;100893.34;5081721;28;20040;-74
2021/10/01 10:51:53;;;;;;;;;;;;;;;17.92;nan;100882.28;5054463;28;20044;-75
2021/10/01 10:54:18;;;;;;;3.42;1.30;;;;;;;18.22;nan;100888.31;5070319;28;20399;-74
2021/10/01 10:56:44;;;;;;;5.00;1.35;;;;;;;18.39;nan;100881.66;5070630;28;20032;-74
2021/10/01 10:59:29;;;;;;;2.35;1.20;;;;;;;18.36;nan;100881.22;5070565;28;20031;-74
2021/10/01 11:02:33;;;;;;;2.25;1.00;;;;;;;18.24;nan;100873.72;5068913;28;20400;-74
2021/10/01 11:05:26;;;;;;;3.38;1.10;;;;;;;17.95;nan;100874.72;5066441;28;20373;-75
2021/10/01 11:07:53;;;;;;;3.17;1.23;;;;;;;17.97;nan;100872.66;5070496;28;20551;-74
2021/10/01 11:10:41;;;;;;;2.20;1.10;;;;;;;17.84;nan;100867.19;5069596;28;20043;-75
2021/10/01 11:13:18;;;;;;;2.53;1.20;;;;;;;17.78;nan;100863.41;5051136;28;20043;-75
2021/10/01 11:16:09;;;;;;;4.00;1.48;;;;;;;17.89;nan;100861.25;5064510;28;20040;-74
2021/10/01 11:18:43;;;;;;;3.73;1.30;;;;;;;17.72;nan;100863.34;5070810;28;20521;-75
2021/10/01 11:21:27;;;;;;;3.47;1.30;;;;;;;18.09;nan;100859.59;5070856;28;20580;-75
2021/10/01 11:23:58;;;;;;;2.72;1.20;;;;;;;18.33;nan;100850.31;5071507;28;20039;-75
2021/10/01 11:26:32;;;;;;;2.13;1.05;;;;;;;18.29;nan;100857.06;5049755;28;20036;-75
2021/10/01 11:28:58;;;;;;;2.92;1.20;;;;;;;18.09;nan;100845.38;5070292;28;20123;-74
2021/10/01 11:31:35;;;;;;;2.20;1.20;;;;;;;18.02;nan;100848.00;5070397;28;20056;-75
2021/10/01 11:34:00;;;;;;;4.63;1.70;;;;;;;17.95;nan;100837.25;5067594;28;20032;-74
2021/10/01 11:36:26;;;;;;;5.10;1.50;;;;;;;17.91;nan;100840.50;5064191;28;20128;-74
2021/10/01 11:39:03;;;;;;;4.32;1.42;;;;;;;18.09;nan;100832.00;5058611;28;20050;-74
2021/10/01 11:41:28;;;;;;;3.40;1.30;;;;;;;18.25;nan;100829.84;5061541;28;20469;-75
2021/10/01 11:43:56;;;;;;;2.45;1.02;;;;;;;18.46;nan;100830.81;5064171;28;20499;-75
2021/10/01 11:46:29;;;;;;;2.22;1.05;;;;;;;18.55;nan;100826.16;5069085;28;20040;-74
2021/10/01 11:48:54;;;;;;;1.95;0.80;;;;;;;18.53;nan;100823.66;5069991;28;20075;-75
2021/10/01 11:51:20;;;;;;;2.50;1.00;;;;;;;18.65;nan;100811.38;5070023;28;20627;-74
2021/10/01 11:53:45;;;;;;;1.58;0.82;;;;;;;18.82;nan;100805.72;5069344;28;20124;-74
2021/10/01 11:56:12;;;;;;;2.17;0.80;;;;;;;18.83;nan;100800.16;5050995;28;20107;-74
2021/10/01 11:58:38;;;;;;;2.17;0.80;;;;;;;18.76;nan;100795.75;5069184;28;20036;-75
2021/10/01 12:01:12;;;;;;;4.72;1.08;;;;;;;18.70;nan;100791.19;5052769;28;20094;-74
2021/10/01 12:03:50;;;;;;;2.60;1.10;;;;;;;18.66;nan;100775.53;5071676;28;20033;-74
2021/10/01 12:06:23;;;;;;;1.90;0.80;;;;;;;18.78;nan;100773.16;5051560;28;20071;-74
2021/10/01 12:09:03;;;;;;;2.30;0.90;;;;;;;18.82;nan;100774.38;5070568;28;20036;-74
2021/10/01 12:11:31;;;;;;;1.92;1.10;;;;;;;18.81;nan;100764.69;5070030;28;20063;-75
2021/10/01 12:14:17;;;;;;;1.95;0.70;;;;;;;18.81;nan;100755.84;5069901;28;20035;-74
2021/10/01 12:16:57;;;;;;;4.43;1.27;;;;;;;18.96;nan;100758.38;5068165;28;20043;-74
2021/10/01 12:19:24;;;;;;;5.78;1.10;;;;;;;19.01;nan;100758.59;5052344;28;20040;-75
2021/10/01 12:22:11;;;;;;;2.67;0.98;;;;;;;19.02;nan;100744.13;5069897;28;20767;-74
2021/10/01 12:24:48;;;;;;;3.58;1.00;;;;;;;18.87;nan;100737.09;5051444;28;20067;-74
2021/10/01 12:27:15;;;;;;;2.47;0.90;;;;;;;18.94;nan;100733.63;5070735;28;20025;-74
2021/10/01 12:29:51;;;;;;;3.35;0.90;;;;;;;18.99;nan;100740.00;5052847;28;20032;-74
2021/10/01 12:32:19;;;;;;;3.47;1.05;;;;;;;18.96;nan;100732.38;5050953;28;20548;-74
2021/10/01 12:34:55;;;;;;;1.80;0.90;;;;;;;18.95;nan;100721.84;5074231;28;20031;-74
2021/10/01 12:37:23;;;;;;;2.00;0.90;;;;;;;19.04;nan;100724.19;5070404;28;20592;-74
2021/10/01 12:39:55;;;;;;;4.47;1.20;;;;;;;19.04;nan;100726.84;5070124;28;20456;-74
2021/10/01 12:42:27;;;;;;;4.18;1.00;;;;;;;19.08;nan;100716.53;5068380;28;20037;-74
2021/10/01 12:45:07;;;;;;;2.33;0.88;;;;;;;19.14;nan;100704.16;5069124;28;20403;-74
2021/10/01 12:47:38;;;;;;;2.80;0.80;;;;;;;19.18;nan;100708.09;5069986;28;20033;-74
2021/10/01 12:50:07;;;;;;;;;;;;;;;19.31;nan;100700.91;5052291;28;20042;-75
2021/10/01 12:52:34;;;;;;;1.65;0.70;;;;;;;19.31;nan;100708.13;5069712;28;20365;-74
2021/10/01 12:55:05;;;;;;;1.80;0.70;;;;;;;19.26;nan;100691.84;5069233;28;20489;-74
2021/10/01 12:57:36;;;;;;;2.35;1.00;;;;;;;19.23;nan;100701.09;5069145;28;20105;-74
2021/10/01 13:00:01;;;;;;;;;;;;;;;19.21;nan;100697.81;5068033;28;20107;-74
2021/10/01 13:02:45;;;;;;;2.77;1.00;;;;;;;19.15;nan;100692.44;5069580;28;19990;-74
2021/10/01 13:05:23;;;;;;;1.90;0.85;;;;;;;19.16;nan;100688.72;5069466;28;20468;-74
2021/10/01 13:08:11;;;;;;;2.03;1.10;;;;;;;19.30;nan;100685.00;5069158;28;20045;-74
2021/10/01 13:10:50;;;;;;;3.35;0.90;;;;;;;19.38;nan;100681.28;5048936;28;20033;-74
2021/10/01 13:13:15;;;;;;;2.05;0.93;;;;;;;19.55;nan;100681.75;5049405;28;20029;-74
2021/10/01 13:15:45;;;;;;;3.23;1.10;;;;;;;19.57;nan;100687.69;5064730;28;20044;-74
2021/10/01 13:18:31;;;;;;;4.07;1.10;;;;;;;19.39;nan;100678.41;5054935;28;20698;-74
2021/10/01 13:21:19;;;;;;;2.53;0.90;;;;;;;19.29;nan;100678.84;5068748;28;20043;-74
2021/10/01 13:23:46;;;;;;;3.13;1.00;;;;;;;19.25;nan;100674.09;5069559;28;20044;-74
2021/10/01 13:26:17;;;;;;;2.28;1.05;;;;;;;19.30;nan;100668.94;5068607;28;20051;-74
2021/10/01 13:28:44;;;;;;;;;;;;;;;19.33;nan;100668.53;5070095;28;20397;-74
2021/10/01 13:31:09;;;;;;;2.85;1.08;;;;;;;19.29;nan;100664.59;5069749;28;19916;-74
2021/10/01 13:33:35;;;;;;;2.75;1.08;;;;;;;19.39;nan;100670.38;5071610;28;20040;-74